sensor_id;sensor_type;location;lat;lon;timestamp;temperature;humidity
4757;DHT22;2392;52.578;13.426;2022-09-01T00:01:04;16.40;99.90
4757;DHT22;2392;52.578;13.426;2022-09-01T00:03:33;16.40;99.90
4757;DHT22;2392;52.578;13.426;2022-09-01T00:06:02;16.40;99.90
4757;DHT22;2392;52.578;13.426;2022-09-01T00:08:35;16.40;99.90
4757;DHT22;2392;52.578;13.426;2022-09-01T00:11:02;16.40;99.90
4757;DHT22;2392;52.578;13.426;2022-09-01T00:13:29;16.40;99.90
4757;DHT22;2392;52.578;13.426;2022-09-01T00:15:58;16.40;99.90
4757;DHT22;2392;52.578;13.426;2022-09-01T00:18:25;16.40;99.90
4757;DHT22;2392;52.578;13.426;2022-09-01T00:20:52;16.40;99.90
4757;DHT22;2392;52.578;13.426;2022-09-01T00:23:21;16.40;99.90
4757;DHT22;2392;52.578;13.426;2022-09-01T00:25:48;16.40;99.90
4757;DHT22;2392;52.578;13.426;2022-09-01T00:28:15;16.40;99.90
4757;DHT22;2392;52.578;13.426;2022-09-01T00:30:42;16.40;99.90
4757;DHT22;2392;52.578;13.426;2022-09-01T00:33:09;16.40;99.90
4757;DHT22;2392;52.578;13.426;2022-09-01T00:35:36;16.40;99.90
4757;DHT22;2392;52.578;13.426;2022-09-01T00:38:03;16.40;99.90
4757;DHT22;2392;52.578;13.426;2022-09-01T00:40:31;16.40;99.90
4757;DHT22;2392;52.578;13.426;2022-09-01T00:42:59;16.40;99.90
4757;DHT22;2392;52.578;13.426;2022-09-01T00:45:27;16.30;99.90
4757;DHT22;2392;52.578;13.426;2022-09-01T00:47:54;16.30;99.90
4757;DHT22;2392;52.578;13.426;2022-09-01T00:50:21;16.30;99.90
4757;DHT22;2392;52.578;13.426;2022-09-01T00:52:51;16.20;99.90
4757;DHT22;2392;52.578;13.426;2022-09-01T00:55:23;16.20;99.90
4757;DHT22;2392;52.578;13.426;2022-09-01T00:57:52;16.10;99.90
4757;DHT22;2392;52.578;13.426;2022-09-01T01:00:21;16.10;99.90
4757;DHT22;2392;52.578;13.426;2022-09-01T01:02:49;16.10;99.90
4757;DHT22;2392;52.578;13.426;2022-09-01T01:05:20;16.00;99.90
4757;DHT22;2392;52.578;13.426;2022-09-01T01:07:49;16.00;99.90
4757;DHT22;2392;52.578;13.426;2022-09-01T01:10:18;16.00;99.90
4757;DHT22;2392;52.578;13.426;2022-09-01T01:12:47;15.90;99.90
4757;DHT22;2392;52.578;13.426;2022-09-01T01:15:18;15.90;99.90
4757;DHT22;2392;52.578;13.426;2022-09-01T01:17:45;15.90;99.90
4757;DHT22;2392;52.578;13.426;2022-09-01T01:20:14;15.90;99.90
4757;DHT22;2392;52.578;13.426;2022-09-01T01:23:06;15.80;99.90
4757;DHT22;2392;52.578;13.426;2022-09-01T01:25:41;15.80;99.90
4757;DHT22;2392;52.578;13.426;2022-09-01T01:28:12;15.80;99.90
4757;DHT22;2392;52.578;13.426;2022-09-01T01:30:43;15.80;99.90
4757;DHT22;2392;52.578;13.426;2022-09-01T01:33:10;15.70;99.90
4757;DHT22;2392;52.578;13.426;2022-09-01T01:35:37;15.70;99.90
4757;DHT22;2392;52.578;13.426;2022-09-01T01:38:04;15.70;99.90
4757;DHT22;2392;52.578;13.426;2022-09-01T01:40:34;15.60;99.90
4757;DHT22;2392;52.578;13.426;2022-09-01T01:43:04;15.60;99.90
4757;DHT22;2392;52.578;13.426;2022-09-01T01:45:31;15.60;99.90
4757;DHT22;2392;52.578;13.426;2022-09-01T01:47:59;15.60;99.90
4757;DHT22;2392;52.578;13.426;2022-09-01T01:50:32;15.60;99.90
4757;DHT22;2392;52.578;13.426;2022-09-01T01:53:03;15.60;99.90
4757;DHT22;2392;52.578;13.426;2022-09-01T01:55:30;15.60;99.90
4757;DHT22;2392;52.578;13.426;2022-09-01T01:57:59;15.60;99.90
4757;DHT22;2392;52.578;13.426;2022-09-01T02:00:30;15.50;99.90
4757;DHT22;2392;52.578;13.426;2022-09-01T02:02:59;15.50;99.90
4757;DHT22;2392;52.578;13.426;2022-09-01T02:05:29;15.50;99.90
4757;DHT22;2392;52.578;13.426;2022-09-01T02:07:59;15.50;99.90
4757;DHT22;2392;52.578;13.426;2022-09-01T02:10:28;15.40;99.90
4757;DHT22;2392;52.578;13.426;2022-09-01T02:12:56;15.40;99.90
4757;DHT22;2392;52.578;13.426;2022-09-01T02:15:30;15.40;99.90
4757;DHT22;2392;52.578;13.426;2022-09-01T02:18:08;15.40;99.90
4757;DHT22;2392;52.578;13.426;2022-09-01T02:20:35;15.30;99.90
4757;DHT22;2392;52.578;13.426;2022-09-01T02:23:02;15.30;99.90
4757;DHT22;2392;52.578;13.426;2022-09-01T02:25:34;15.20;99.90
4757;DHT22;2392;52.578;13.426;2022-09-01T02:28:01;15.20;99.90
4757;DHT22;2392;52.578;13.426;2022-09-01T02:30:30;15.20;99.90
4757;DHT22;2392;52.578;13.426;2022-09-01T02:32:58;15.20;99.90
4757;DHT22;2392;52.578;13.426;2022-09-01T02:35:25;15.10;99.90
4757;DHT22;2392;52.578;13.426;2022-09-01T02:37:56;15.10;99.90
4757;DHT22;2392;52.578;13.426;2022-09-01T02:40:26;15.10;99.90
4757;DHT22;2392;52.578;13.426;2022-09-01T02:42:55;15.10;99.90
4757;DHT22;2392;52.578;13.426;2022-09-01T02:45:24;15.10;99.90
4757;DHT22;2392;52.578;13.426;2022-09-01T02:47:52;15.00;99.90
4757;DHT22;2392;52.578;13.426;2022-09-01T02:50:22;15.00;99.90
4757;DHT22;2392;52.578;13.426;2022-09-01T02:52:50;15.00;99.90
4757;DHT22;2392;52.578;13.426;2022-09-01T02:55:18;14.90;99.90
4757;DHT22;2392;52.578;13.426;2022-09-01T02:57:49;14.90;99.90
4757;DHT22;2392;52.578;13.426;2022-09-01T03:00:17;14.90;99.90
4757;DHT22;2392;52.578;13.426;2022-09-01T03:02:57;14.80;99.90
4757;DHT22;2392;52.578;13.426;2022-09-01T03:05:26;14.80;99.90
4757;DHT22;2392;52.578;13.426;2022-09-01T03:07:56;14.80;99.90
4757;DHT22;2392;52.578;13.426;2022-09-01T03:10:28;14.70;99.90
4757;DHT22;2392;52.578;13.426;2022-09-01T03:13:01;14.70;99.90
4757;DHT22;2392;52.578;13.426;2022-09-01T03:15:28;14.60;99.90
4757;DHT22;2392;52.578;13.426;2022-09-01T03:17:57;14.60;99.90
4757;DHT22;2392;52.578;13.426;2022-09-01T03:20:24;14.50;99.90
4757;DHT22;2392;52.578;13.426;2022-09-01T03:22:52;14.50;99.90
4757;DHT22;2392;52.578;13.426;2022-09-01T03:25:23;14.50;99.90
4757;DHT22;2392;52.578;13.426;2022-09-01T03:27:51;14.40;99.90
4757;DHT22;2392;52.578;13.426;2022-09-01T03:30:18;14.40;99.90
4757;DHT22;2392;52.578;13.426;2022-09-01T03:32:46;14.30;99.90
4757;DHT22;2392;52.578;13.426;2022-09-01T03:35:15;14.30;99.90
4757;DHT22;2392;52.578;13.426;2022-09-01T03:37:42;14.30;99.90
4757;DHT22;2392;52.578;13.426;2022-09-01T03:40:11;14.30;99.90
4757;DHT22;2392;52.578;13.426;2022-09-01T03:42:40;14.20;99.90
4757;DHT22;2392;52.578;13.426;2022-09-01T03:45:10;14.20;99.90
4757;DHT22;2392;52.578;13.426;2022-09-01T03:47:41;14.20;99.90
4757;DHT22;2392;52.578;13.426;2022-09-01T03:50:12;14.10;99.90
4757;DHT22;2392;52.578;13.426;2022-09-01T03:52:46;14.10;99.90
4757;DHT22;2392;52.578;13.426;2022-09-01T03:55:14;14.10;99.90
4757;DHT22;2392;52.578;13.426;2022-09-01T03:57:43;14.00;99.90
4757;DHT22;2392;52.578;13.426;2022-09-01T04:00:13;14.10;99.90
4757;DHT22;2392;52.578;13.426;2022-09-01T04:02:46;14.00;99.90
4757;DHT22;2392;52.578;13.426;2022-09-01T04:05:16;14.00;99.90
4757;DHT22;2392;52.578;13.426;2022-09-01T04:07:47;13.90;99.90
4757;DHT22;2392;52.578;13.426;2022-09-01T04:10:16;13.90;99.90
4757;DHT22;2392;52.578;13.426;2022-09-01T04:12:43;13.90;99.90
4757;DHT22;2392;52.578;13.426;2022-09-01T04:15:11;13.90;99.90
4757;DHT22;2392;52.578;13.426;2022-09-01T04:17:38;13.80;99.90
4757;DHT22;2392;52.578;13.426;2022-09-01T04:20:23;13.80;99.90
4757;DHT22;2392;52.578;13.426;2022-09-01T04:22:52;13.80;99.90
4757;DHT22;2392;52.578;13.426;2022-09-01T04:25:20;13.70;99.90
4757;DHT22;2392;52.578;13.426;2022-09-01T04:27:50;13.70;99.90
4757;DHT22;2392;52.578;13.426;2022-09-01T04:30:19;13.70;99.90
4757;DHT22;2392;52.578;13.426;2022-09-01T04:32:50;13.70;99.90
4757;DHT22;2392;52.578;13.426;2022-09-01T04:35:19;13.60;99.90
4757;DHT22;2392;52.578;13.426;2022-09-01T04:37:59;13.60;99.90
4757;DHT22;2392;52.578;13.426;2022-09-01T04:40:27;13.60;99.90
4757;DHT22;2392;52.578;13.426;2022-09-01T04:42:54;13.60;99.90
4757;DHT22;2392;52.578;13.426;2022-09-01T04:45:21;13.60;99.90
4757;DHT22;2392;52.578;13.426;2022-09-01T04:47:54;13.60;99.90
4757;DHT22;2392;52.578;13.426;2022-09-01T04:50:21;13.60;99.90
4757;DHT22;2392;52.578;13.426;2022-09-01T04:53:12;13.50;99.90
4757;DHT22;2392;52.578;13.426;2022-09-01T04:55:43;13.50;99.90
4757;DHT22;2392;52.578;13.426;2022-09-01T04:58:13;13.50;99.90
4757;DHT22;2392;52.578;13.426;2022-09-01T05:00:42;13.50;99.90
4757;DHT22;2392;52.578;13.426;2022-09-01T05:03:13;13.40;99.90
4757;DHT22;2392;52.578;13.426;2022-09-01T05:05:58;13.40;99.90
4757;DHT22;2392;52.578;13.426;2022-09-01T05:08:30;13.40;99.90
4757;DHT22;2392;52.578;13.426;2022-09-01T05:11:03;13.50;99.90
4757;DHT22;2392;52.578;13.426;2022-09-01T05:13:44;13.40;99.90
4757;DHT22;2392;52.578;13.426;2022-09-01T05:16:14;13.50;99.90
4757;DHT22;2392;52.578;13.426;2022-09-01T05:18:47;13.50;99.90
4757;DHT22;2392;52.578;13.426;2022-09-01T05:21:17;13.40;99.90
4757;DHT22;2392;52.578;13.426;2022-09-01T05:23:48;13.50;99.90
4757;DHT22;2392;52.578;13.426;2022-09-01T05:26:19;13.50;99.90
4757;DHT22;2392;52.578;13.426;2022-09-01T05:28:48;13.50;99.90
4757;DHT22;2392;52.578;13.426;2022-09-01T05:31:17;13.50;99.90
4757;DHT22;2392;52.578;13.426;2022-09-01T05:33:45;13.50;99.90
4757;DHT22;2392;52.578;13.426;2022-09-01T05:36:16;13.50;99.90
4757;DHT22;2392;52.578;13.426;2022-09-01T05:38:45;13.50;99.90
4757;DHT22;2392;52.578;13.426;2022-09-01T05:41:15;13.60;99.90
4757;DHT22;2392;52.578;13.426;2022-09-01T05:43:44;13.60;99.90
4757;DHT22;2392;52.578;13.426;2022-09-01T05:46:19;13.60;99.90
4757;DHT22;2392;52.578;13.426;2022-09-01T05:48:47;13.70;99.90
4757;DHT22;2392;52.578;13.426;2022-09-01T05:51:16;13.70;99.90
4757;DHT22;2392;52.578;13.426;2022-09-01T05:53:44;13.80;99.90
4757;DHT22;2392;52.578;13.426;2022-09-01T05:56:13;13.80;99.90
4757;DHT22;2392;52.578;13.426;2022-09-01T05:58:41;13.80;99.90
4757;DHT22;2392;52.578;13.426;2022-09-01T06:01:09;13.90;99.90
4757;DHT22;2392;52.578;13.426;2022-09-01T06:03:42;13.90;99.90
4757;DHT22;2392;52.578;13.426;2022-09-01T06:06:14;14.00;99.90
4757;DHT22;2392;52.578;13.426;2022-09-01T06:08:42;14.00;99.90
4757;DHT22;2392;52.578;13.426;2022-09-01T06:11:15;14.10;99.90
4757;DHT22;2392;52.578;13.426;2022-09-01T06:13:43;14.10;99.90
4757;DHT22;2392;52.578;13.426;2022-09-01T06:16:13;14.20;99.90
4757;DHT22;2392;52.578;13.426;2022-09-01T06:18:42;14.20;99.90
4757;DHT22;2392;52.578;13.426;2022-09-01T06:21:10;14.30;99.90
4757;DHT22;2392;52.578;13.426;2022-09-01T06:23:41;14.40;99.90
4757;DHT22;2392;52.578;13.426;2022-09-01T06:26:16;14.40;99.90
4757;DHT22;2392;52.578;13.426;2022-09-01T06:28:44;14.50;99.90
4757;DHT22;2392;52.578;13.426;2022-09-01T06:31:12;14.50;99.90
4757;DHT22;2392;52.578;13.426;2022-09-01T06:33:39;14.60;99.90
4757;DHT22;2392;52.578;13.426;2022-09-01T06:36:10;14.70;99.90
4757;DHT22;2392;52.578;13.426;2022-09-01T06:38:37;14.80;99.90
4757;DHT22;2392;52.578;13.426;2022-09-01T06:41:05;14.80;99.90
4757;DHT22;2392;52.578;13.426;2022-09-01T06:43:39;14.90;99.90
4757;DHT22;2392;52.578;13.426;2022-09-01T06:46:07;15.00;99.90
4757;DHT22;2392;52.578;13.426;2022-09-01T06:48:36;15.10;99.90
4757;DHT22;2392;52.578;13.426;2022-09-01T06:51:07;15.20;99.90
4757;DHT22;2392;52.578;13.426;2022-09-01T06:53:39;15.20;99.90
4757;DHT22;2392;52.578;13.426;2022-09-01T06:56:10;15.30;99.90
4757;DHT22;2392;52.578;13.426;2022-09-01T06:58:40;15.40;99.90
4757;DHT22;2392;52.578;13.426;2022-09-01T07:01:15;15.50;99.90
4757;DHT22;2392;52.578;13.426;2022-09-01T07:03:42;15.50;99.90
4757;DHT22;2392;52.578;13.426;2022-09-01T07:06:15;15.50;99.90
4757;DHT22;2392;52.578;13.426;2022-09-01T07:09:01;15.60;99.90
4757;DHT22;2392;52.578;13.426;2022-09-01T07:11:32;15.70;99.90
4757;DHT22;2392;52.578;13.426;2022-09-01T07:14:03;15.70;99.90
4757;DHT22;2392;52.578;13.426;2022-09-01T07:16:33;15.80;99.90
4757;DHT22;2392;52.578;13.426;2022-09-01T07:19:07;15.80;99.90
4757;DHT22;2392;52.578;13.426;2022-09-01T07:21:46;15.90;99.90
4757;DHT22;2392;52.578;13.426;2022-09-01T07:24:15;16.00;99.90
4757;DHT22;2392;52.578;13.426;2022-09-01T07:27:02;16.00;99.90
4757;DHT22;2392;52.578;13.426;2022-09-01T07:29:31;16.10;99.90
4757;DHT22;2392;52.578;13.426;2022-09-01T07:32:00;16.20;99.90
4757;DHT22;2392;52.578;13.426;2022-09-01T07:34:27;16.20;99.90
4757;DHT22;2392;52.578;13.426;2022-09-01T07:36:56;16.30;99.90
4757;DHT22;2392;52.578;13.426;2022-09-01T07:39:24;16.30;99.90
4757;DHT22;2392;52.578;13.426;2022-09-01T07:42:18;16.40;99.90
4757;DHT22;2392;52.578;13.426;2022-09-01T07:45:08;16.50;99.90
4757;DHT22;2392;52.578;13.426;2022-09-01T07:47:44;16.50;99.90
4757;DHT22;2392;52.578;13.426;2022-09-01T07:50:12;16.60;99.90
4757;DHT22;2392;52.578;13.426;2022-09-01T07:52:41;16.70;99.90
4757;DHT22;2392;52.578;13.426;2022-09-01T07:55:10;16.70;99.90
4757;DHT22;2392;52.578;13.426;2022-09-01T07:57:37;16.80;99.90
4757;DHT22;2392;52.578;13.426;2022-09-01T08:00:10;16.90;99.90
4757;DHT22;2392;52.578;13.426;2022-09-01T08:02:41;17.00;99.90
4757;DHT22;2392;52.578;13.426;2022-09-01T08:05:14;17.00;99.90
4757;DHT22;2392;52.578;13.426;2022-09-01T08:07:43;17.10;99.90
4757;DHT22;2392;52.578;13.426;2022-09-01T08:10:12;17.10;99.90
4757;DHT22;2392;52.578;13.426;2022-09-01T08:12:40;17.20;99.90
4757;DHT22;2392;52.578;13.426;2022-09-01T08:15:09;17.30;99.90
4757;DHT22;2392;52.578;13.426;2022-09-01T08:17:37;17.30;99.90
4757;DHT22;2392;52.578;13.426;2022-09-01T08:20:09;17.40;99.90
4757;DHT22;2392;52.578;13.426;2022-09-01T08:22:51;17.50;99.90
4757;DHT22;2392;52.578;13.426;2022-09-01T08:25:40;17.50;99.90
4757;DHT22;2392;52.578;13.426;2022-09-01T08:28:09;17.60;99.90
4757;DHT22;2392;52.578;13.426;2022-09-01T08:30:40;17.70;99.90
4757;DHT22;2392;52.578;13.426;2022-09-01T08:33:07;17.80;99.90
4757;DHT22;2392;52.578;13.426;2022-09-01T08:35:37;17.90;99.90
4757;DHT22;2392;52.578;13.426;2022-09-01T08:38:04;18.00;99.90
4757;DHT22;2392;52.578;13.426;2022-09-01T08:40:31;18.00;99.90
4757;DHT22;2392;52.578;13.426;2022-09-01T08:43:07;18.00;99.90
4757;DHT22;2392;52.578;13.426;2022-09-01T08:45:44;18.10;99.90
4757;DHT22;2392;52.578;13.426;2022-09-01T08:48:14;18.10;99.90
4757;DHT22;2392;52.578;13.426;2022-09-01T08:50:43;18.20;99.90
4757;DHT22;2392;52.578;13.426;2022-09-01T08:53:23;18.30;99.90
4757;DHT22;2392;52.578;13.426;2022-09-01T08:55:55;18.40;99.90
4757;DHT22;2392;52.578;13.426;2022-09-01T08:58:22;18.50;99.90
4757;DHT22;2392;52.578;13.426;2022-09-01T09:01:15;18.60;99.90
4757;DHT22;2392;52.578;13.426;2022-09-01T09:03:55;18.70;99.90
4757;DHT22;2392;52.578;13.426;2022-09-01T09:06:32;18.80;99.90
4757;DHT22;2392;52.578;13.426;2022-09-01T09:09:03;18.80;99.90
4757;DHT22;2392;52.578;13.426;2022-09-01T09:14:49;19.00;99.90
4757;DHT22;2392;52.578;13.426;2022-09-01T09:17:22;19.20;99.90
4757;DHT22;2392;52.578;13.426;2022-09-01T09:19:51;19.30;99.90
4757;DHT22;2392;52.578;13.426;2022-09-01T09:22:19;19.30;99.90
4757;DHT22;2392;52.578;13.426;2022-09-01T09:24:49;19.40;99.90
4757;DHT22;2392;52.578;13.426;2022-09-01T09:27:19;19.50;99.90
4757;DHT22;2392;52.578;13.426;2022-09-01T09:29:47;19.60;99.90
4757;DHT22;2392;52.578;13.426;2022-09-01T09:32:15;19.70;99.90
4757;DHT22;2392;52.578;13.426;2022-09-01T09:34:43;19.80;99.90
4757;DHT22;2392;52.578;13.426;2022-09-01T09:37:22;19.90;99.90
4757;DHT22;2392;52.578;13.426;2022-09-01T09:40:09;20.00;99.90
4757;DHT22;2392;52.578;13.426;2022-09-01T09:42:41;20.10;99.90
4757;DHT22;2392;52.578;13.426;2022-09-01T09:45:21;20.30;99.90
4757;DHT22;2392;52.578;13.426;2022-09-01T09:47:50;20.40;99.90
4757;DHT22;2392;52.578;13.426;2022-09-01T09:50:23;20.60;99.90
4757;DHT22;2392;52.578;13.426;2022-09-01T09:52:51;20.70;99.90
4757;DHT22;2392;52.578;13.426;2022-09-01T09:55:25;20.90;99.90
4757;DHT22;2392;52.578;13.426;2022-09-01T09:57:55;21.00;99.90
4757;DHT22;2392;52.578;13.426;2022-09-01T10:00:26;21.10;99.90
4757;DHT22;2392;52.578;13.426;2022-09-01T10:02:57;21.30;99.90
4757;DHT22;2392;52.578;13.426;2022-09-01T10:05:37;21.50;99.90
4757;DHT22;2392;52.578;13.426;2022-09-01T10:08:07;21.80;99.90
4757;DHT22;2392;52.578;13.426;2022-09-01T10:10:40;22.10;99.90
4757;DHT22;2392;52.578;13.426;2022-09-01T10:13:10;22.50;99.90
4757;DHT22;2392;52.578;13.426;2022-09-01T10:15:39;23.10;99.90
4757;DHT22;2392;52.578;13.426;2022-09-01T10:18:11;23.80;99.90
4757;DHT22;2392;52.578;13.426;2022-09-01T10:20:44;24.00;99.90
4757;DHT22;2392;52.578;13.426;2022-09-01T10:23:13;24.60;99.90
4757;DHT22;2392;52.578;13.426;2022-09-01T10:25:40;25.50;99.90
4757;DHT22;2392;52.578;13.426;2022-09-01T10:28:11;26.30;98.30
4757;DHT22;2392;52.578;13.426;2022-09-01T10:30:42;27.20;95.70
4757;DHT22;2392;52.578;13.426;2022-09-01T10:33:13;27.20;93.90
4757;DHT22;2392;52.578;13.426;2022-09-01T10:35:43;27.00;92.90
4757;DHT22;2392;52.578;13.426;2022-09-01T10:38:15;26.50;91.50
4757;DHT22;2392;52.578;13.426;2022-09-01T10:40:43;26.50;92.60
4757;DHT22;2392;52.578;13.426;2022-09-01T10:43:38;27.00;91.80
4757;DHT22;2392;52.578;13.426;2022-09-01T10:48:52;26.60;90.10
4757;DHT22;2392;52.578;13.426;2022-09-01T10:51:45;25.90;87.90
4757;DHT22;2392;52.578;13.426;2022-09-01T10:57:35;25.70;90.90
4757;DHT22;2392;52.578;13.426;2022-09-01T11:06:53;31.30;77.50
4757;DHT22;2392;52.578;13.426;2022-09-01T11:09:26;32.80;70.00
4757;DHT22;2392;52.578;13.426;2022-09-01T11:12:30;33.80;66.00
4757;DHT22;2392;52.578;13.426;2022-09-01T11:15:00;35.00;60.30
4757;DHT22;2392;52.578;13.426;2022-09-01T11:17:29;35.80;57.00
4757;DHT22;2392;52.578;13.426;2022-09-01T11:20:02;35.90;54.60
4757;DHT22;2392;52.578;13.426;2022-09-01T11:22:36;36.00;54.70
4757;DHT22;2392;52.578;13.426;2022-09-01T11:28:05;35.00;53.20
4757;DHT22;2392;52.578;13.426;2022-09-01T11:30:40;35.10;52.60
4757;DHT22;2392;52.578;13.426;2022-09-01T11:33:35;34.90;51.90
4757;DHT22;2392;52.578;13.426;2022-09-01T11:36:06;34.40;52.80
4757;DHT22;2392;52.578;13.426;2022-09-01T11:38:45;33.60;52.60
4757;DHT22;2392;52.578;13.426;2022-09-01T11:41:20;32.40;53.50
4757;DHT22;2392;52.578;13.426;2022-09-01T11:43:50;31.40;54.90
4757;DHT22;2392;52.578;13.426;2022-09-01T11:46:21;31.50;56.30
4757;DHT22;2392;52.578;13.426;2022-09-01T11:48:50;32.30;54.70
4757;DHT22;2392;52.578;13.426;2022-09-01T11:51:17;32.00;52.10
4757;DHT22;2392;52.578;13.426;2022-09-01T11:53:55;31.40;53.20
4757;DHT22;2392;52.578;13.426;2022-09-01T11:56:27;30.40;54.10
4757;DHT22;2392;52.578;13.426;2022-09-01T11:58:57;29.20;56.90
4757;DHT22;2392;52.578;13.426;2022-09-01T12:01:32;28.20;60.20
4757;DHT22;2392;52.578;13.426;2022-09-01T12:04:18;27.30;63.70
4757;DHT22;2392;52.578;13.426;2022-09-01T12:06:52;26.50;66.00
4757;DHT22;2392;52.578;13.426;2022-09-01T12:09:21;25.90;67.60
4757;DHT22;2392;52.578;13.426;2022-09-01T12:11:56;25.40;68.80
4757;DHT22;2392;52.578;13.426;2022-09-01T12:14:23;24.80;70.00
4757;DHT22;2392;52.578;13.426;2022-09-01T12:16:59;24.50;70.20
4757;DHT22;2392;52.578;13.426;2022-09-01T12:19:28;24.20;71.10
4757;DHT22;2392;52.578;13.426;2022-09-01T12:22:00;23.90;72.10
4757;DHT22;2392;52.578;13.426;2022-09-01T12:24:32;23.70;73.60
4757;DHT22;2392;52.578;13.426;2022-09-01T12:27:00;23.60;73.80
4757;DHT22;2392;52.578;13.426;2022-09-01T12:29:28;23.50;74.80
4757;DHT22;2392;52.578;13.426;2022-09-01T12:31:56;23.50;74.40
4757;DHT22;2392;52.578;13.426;2022-09-01T12:34:26;23.50;74.50
4757;DHT22;2392;52.578;13.426;2022-09-01T12:37:06;23.50;74.40
4757;DHT22;2392;52.578;13.426;2022-09-01T12:39:36;23.50;74.70
4757;DHT22;2392;52.578;13.426;2022-09-01T12:42:09;23.50;74.60
4757;DHT22;2392;52.578;13.426;2022-09-01T12:44:46;23.50;75.10
4757;DHT22;2392;52.578;13.426;2022-09-01T12:47:44;23.50;75.30
4757;DHT22;2392;52.578;13.426;2022-09-01T12:50:40;23.60;75.70
4757;DHT22;2392;52.578;13.426;2022-09-01T12:53:18;23.70;75.50
4757;DHT22;2392;52.578;13.426;2022-09-01T12:56:02;23.80;75.40
4757;DHT22;2392;52.578;13.426;2022-09-01T12:58:38;23.90;74.90
4757;DHT22;2392;52.578;13.426;2022-09-01T13:01:06;23.80;73.20
4757;DHT22;2392;52.578;13.426;2022-09-01T13:03:34;23.80;72.90
4757;DHT22;2392;52.578;13.426;2022-09-01T13:06:02;23.80;73.50
4757;DHT22;2392;52.578;13.426;2022-09-01T13:08:30;23.80;72.20
4757;DHT22;2392;52.578;13.426;2022-09-01T13:11:02;23.60;72.00
4757;DHT22;2392;52.578;13.426;2022-09-01T13:13:29;23.60;73.40
4757;DHT22;2392;52.578;13.426;2022-09-01T13:15:58;23.50;73.80
4757;DHT22;2392;52.578;13.426;2022-09-01T13:18:26;23.30;73.00
4757;DHT22;2392;52.578;13.426;2022-09-01T13:20:55;23.10;72.70
4757;DHT22;2392;52.578;13.426;2022-09-01T13:23:23;23.00;73.20
4757;DHT22;2392;52.578;13.426;2022-09-01T13:25:50;22.80;74.20
4757;DHT22;2392;52.578;13.426;2022-09-01T13:28:19;22.70;75.70
4757;DHT22;2392;52.578;13.426;2022-09-01T13:30:52;22.50;74.80
4757;DHT22;2392;52.578;13.426;2022-09-01T13:33:19;22.40;76.20
4757;DHT22;2392;52.578;13.426;2022-09-01T13:35:47;22.40;76.90
4757;DHT22;2392;52.578;13.426;2022-09-01T13:38:14;22.30;77.50
4757;DHT22;2392;52.578;13.426;2022-09-01T13:40:41;22.30;77.40
4757;DHT22;2392;52.578;13.426;2022-09-01T13:43:10;22.40;77.90
4757;DHT22;2392;52.578;13.426;2022-09-01T13:45:38;22.40;77.60
4757;DHT22;2392;52.578;13.426;2022-09-01T13:48:06;22.40;78.40
4757;DHT22;2392;52.578;13.426;2022-09-01T13:50:33;22.50;78.20
4757;DHT22;2392;52.578;13.426;2022-09-01T13:53:00;22.50;77.60
4757;DHT22;2392;52.578;13.426;2022-09-01T13:55:29;22.50;76.90
4757;DHT22;2392;52.578;13.426;2022-09-01T13:57:56;22.50;77.10
4757;DHT22;2392;52.578;13.426;2022-09-01T14:00:25;22.50;77.00
4757;DHT22;2392;52.578;13.426;2022-09-01T14:02:58;22.60;77.40
4757;DHT22;2392;52.578;13.426;2022-09-01T14:05:26;22.60;76.70
4757;DHT22;2392;52.578;13.426;2022-09-01T14:07:56;22.70;77.00
4757;DHT22;2392;52.578;13.426;2022-09-01T14:10:25;22.70;77.70
4757;DHT22;2392;52.578;13.426;2022-09-01T14:12:52;22.80;76.40
4757;DHT22;2392;52.578;13.426;2022-09-01T14:15:20;22.90;76.20
4757;DHT22;2392;52.578;13.426;2022-09-01T14:17:50;23.40;76.30
4757;DHT22;2392;52.578;13.426;2022-09-01T14:20:21;23.70;75.60
4757;DHT22;2392;52.578;13.426;2022-09-01T14:22:49;23.90;75.80
4757;DHT22;2392;52.578;13.426;2022-09-01T14:25:17;24.10;75.40
4757;DHT22;2392;52.578;13.426;2022-09-01T14:27:45;24.30;74.90
4757;DHT22;2392;52.578;13.426;2022-09-01T14:30:17;24.50;73.90
4757;DHT22;2392;52.578;13.426;2022-09-01T14:32:44;24.60;72.90
4757;DHT22;2392;52.578;13.426;2022-09-01T14:35:12;24.80;73.90
4757;DHT22;2392;52.578;13.426;2022-09-01T14:37:40;24.80;72.80
4757;DHT22;2392;52.578;13.426;2022-09-01T14:40:09;24.90;72.90
4757;DHT22;2392;52.578;13.426;2022-09-01T14:42:39;25.00;71.90
4757;DHT22;2392;52.578;13.426;2022-09-01T14:45:09;25.10;73.10
4757;DHT22;2392;52.578;13.426;2022-09-01T14:47:37;25.30;72.30
4757;DHT22;2392;52.578;13.426;2022-09-01T14:50:04;25.20;71.40
4757;DHT22;2392;52.578;13.426;2022-09-01T14:52:32;24.90;71.60
4757;DHT22;2392;52.578;13.426;2022-09-01T14:55:00;24.80;73.10
4757;DHT22;2392;52.578;13.426;2022-09-01T14:57:27;24.50;72.80
4757;DHT22;2392;52.578;13.426;2022-09-01T14:59:54;24.30;73.10
4757;DHT22;2392;52.578;13.426;2022-09-01T15:02:21;24.00;73.70
4757;DHT22;2392;52.578;13.426;2022-09-01T15:04:49;23.80;74.30
4757;DHT22;2392;52.578;13.426;2022-09-01T15:07:17;23.80;74.00
4757;DHT22;2392;52.578;13.426;2022-09-01T15:09:44;23.70;74.50
4757;DHT22;2392;52.578;13.426;2022-09-01T15:12:13;23.60;74.20
4757;DHT22;2392;52.578;13.426;2022-09-01T15:14:39;23.50;75.20
4757;DHT22;2392;52.578;13.426;2022-09-01T15:17:06;23.40;75.40
4757;DHT22;2392;52.578;13.426;2022-09-01T15:19:34;23.20;75.80
4757;DHT22;2392;52.578;13.426;2022-09-01T15:22:01;23.10;76.00
4757;DHT22;2392;52.578;13.426;2022-09-01T15:24:28;23.00;76.80
4757;DHT22;2392;52.578;13.426;2022-09-01T15:26:55;22.90;76.90
4757;DHT22;2392;52.578;13.426;2022-09-01T15:29:23;22.80;76.90
4757;DHT22;2392;52.578;13.426;2022-09-01T15:31:50;22.80;77.00
4757;DHT22;2392;52.578;13.426;2022-09-01T15:34:19;22.80;77.30
4757;DHT22;2392;52.578;13.426;2022-09-01T15:36:46;22.60;76.60
4757;DHT22;2392;52.578;13.426;2022-09-01T15:39:13;22.50;76.60
4757;DHT22;2392;52.578;13.426;2022-09-01T15:41:42;22.40;76.80
4757;DHT22;2392;52.578;13.426;2022-09-01T15:44:09;22.40;76.80
4757;DHT22;2392;52.578;13.426;2022-09-01T15:46:37;22.30;77.30
4757;DHT22;2392;52.578;13.426;2022-09-01T15:49:07;22.20;78.00
4757;DHT22;2392;52.578;13.426;2022-09-01T15:51:36;22.10;77.40
4757;DHT22;2392;52.578;13.426;2022-09-01T15:54:06;22.00;77.30
4757;DHT22;2392;52.578;13.426;2022-09-01T15:56:34;21.90;77.20
4757;DHT22;2392;52.578;13.426;2022-09-01T15:59:01;21.90;77.40
4757;DHT22;2392;52.578;13.426;2022-09-01T16:01:31;21.90;77.80
4757;DHT22;2392;52.578;13.426;2022-09-01T16:04:01;21.80;78.40
4757;DHT22;2392;52.578;13.426;2022-09-01T16:06:29;21.80;78.30
4757;DHT22;2392;52.578;13.426;2022-09-01T16:08:56;21.70;78.40
4757;DHT22;2392;52.578;13.426;2022-09-01T16:11:24;21.70;79.00
4757;DHT22;2392;52.578;13.426;2022-09-01T16:13:52;21.70;79.00
4757;DHT22;2392;52.578;13.426;2022-09-01T16:16:31;21.70;79.30
4757;DHT22;2392;52.578;13.426;2022-09-01T16:19:04;21.70;79.20
4757;DHT22;2392;52.578;13.426;2022-09-01T16:21:43;21.70;79.30
4757;DHT22;2392;52.578;13.426;2022-09-01T16:24:13;21.70;79.10
4757;DHT22;2392;52.578;13.426;2022-09-01T16:26:45;21.70;79.20